sensor_id;sensor_type;location;lat;lon;timestamp;pressure;altitude;pressure_sealevel;temperature;humidity
42633;BME280;28261;53.304;-6.284;2023-01-31T00:01:09;101814.56;;;7.37;99.65
42633;BME280;28261;53.304;-6.284;2023-01-31T00:03:13;101801.38;;;7.37;100.00
42633;BME280;28261;53.304;-6.284;2023-01-31T00:05:18;101792.59;;;7.37;100.00
42633;BME280;28261;53.304;-6.284;2023-01-31T00:07:22;101792.63;;;7.35;100.00
42633;BME280;28261;53.304;-6.284;2023-01-31T00:09:28;101786.50;;;7.35;100.00
42633;BME280;28261;53.304;-6.284;2023-01-31T00:11:32;101791.91;;;7.32;100.00
42633;BME280;28261;53.304;-6.284;2023-01-31T00:13:37;101798.03;;;7.32;100.00
42633;BME280;28261;53.304;-6.284;2023-01-31T00:15:41;101798.94;;;7.31;100.00
42633;BME280;28261;53.304;-6.284;2023-01-31T00:17:45;101794.53;;;7.32;100.00
42633;BME280;28261;53.304;-6.284;2023-01-31T00:19:49;101797.19;;;7.32;100.00
42633;BME280;28261;53.304;-6.284;2023-01-31T00:21:52;101793.63;;;7.33;100.00
42633;BME280;28261;53.304;-6.284;2023-01-31T00:23:57;101788.25;;;7.36;100.00
42633;BME280;28261;53.304;-6.284;2023-01-31T00:26:10;101776.81;;;7.35;100.00
42633;BME280;28261;53.304;-6.284;2023-01-31T00:28:14;101781.16;;;7.36;100.00
42633;BME280;28261;53.304;-6.284;2023-01-31T00:30:18;101774.88;;;7.40;100.00
42633;BME280;28261;53.304;-6.284;2023-01-31T00:32:22;101759.91;;;7.41;100.00
42633;BME280;28261;53.304;-6.284;2023-01-31T00:34:30;101767.78;;;7.42;100.00
42633;BME280;28261;53.304;-6.284;2023-01-31T00:36:34;101765.06;;;7.44;100.00
42633;BME280;28261;53.304;-6.284;2023-01-31T00:38:39;101768.56;;;7.44;100.00
42633;BME280;28261;53.304;-6.284;2023-01-31T00:40:50;101764.09;;;7.47;100.00
42633;BME280;28261;53.304;-6.284;2023-01-31T00:42:55;101763.16;;;7.48;100.00
42633;BME280;28261;53.304;-6.284;2023-01-31T00:45:00;101760.50;;;7.49;100.00
42633;BME280;28261;53.304;-6.284;2023-01-31T00:47:04;101749.88;;;7.51;100.00
42633;BME280;28261;53.304;-6.284;2023-01-31T00:49:09;101762.13;;;7.52;100.00
42633;BME280;28261;53.304;-6.284;2023-01-31T00:51:12;101750.59;;;7.54;100.00
42633;BME280;28261;53.304;-6.284;2023-01-31T00:53:16;101744.41;;;7.55;100.00
42633;BME280;28261;53.304;-6.284;2023-01-31T00:55:24;101754.84;;;7.58;100.00
42633;BME280;28261;53.304;-6.284;2023-01-31T00:57:28;101760.13;;;7.58;100.00
42633;BME280;28261;53.304;-6.284;2023-01-31T00:59:32;101750.44;;;7.59;100.00
42633;BME280;28261;53.304;-6.284;2023-01-31T01:01:37;101757.44;;;7.60;100.00
42633;BME280;28261;53.304;-6.284;2023-01-31T01:03:41;101747.75;;;7.60;100.00
42633;BME280;28261;53.304;-6.284;2023-01-31T01:05:45;101744.13;;;7.63;100.00
42633;BME280;28261;53.304;-6.284;2023-01-31T01:07:49;101747.56;;;7.65;100.00
42633;BME280;28261;53.304;-6.284;2023-01-31T01:09:52;101744.91;;;7.65;100.00
42633;BME280;28261;53.304;-6.284;2023-01-31T01:11:57;101741.31;;;7.68;100.00
42633;BME280;28261;53.304;-6.284;2023-01-31T01:14:01;101728.03;;;7.69;100.00
42633;BME280;28261;53.304;-6.284;2023-01-31T01:16:07;101731.50;;;7.71;100.00
42633;BME280;28261;53.304;-6.284;2023-01-31T01:18:12;101725.31;;;7.72;100.00
42633;BME280;28261;53.304;-6.284;2023-01-31T01:20:16;101721.78;;;7.72;100.00
42633;BME280;28261;53.304;-6.284;2023-01-31T01:22:20;101726.16;;;7.73;100.00
42633;BME280;28261;53.304;-6.284;2023-01-31T01:24:24;101724.38;;;7.73;100.00
42633;BME280;28261;53.304;-6.284;2023-01-31T01:26:29;101720.03;;;7.72;100.00
42633;BME280;28261;53.304;-6.284;2023-01-31T01:28:34;101727.00;;;7.73;100.00
42633;BME280;28261;53.304;-6.284;2023-01-31T01:30:37;101723.50;;;7.73;100.00
42633;BME280;28261;53.304;-6.284;2023-01-31T01:32:42;101723.50;;;7.73;100.00
42633;BME280;28261;53.304;-6.284;2023-01-31T01:34:48;101723.50;;;7.73;100.00
42633;BME280;28261;53.304;-6.284;2023-01-31T01:36:51;101715.59;;;7.73;100.00
42633;BME280;28261;53.304;-6.284;2023-01-31T01:38:55;101709.50;;;7.71;100.00
42633;BME280;28261;53.304;-6.284;2023-01-31T01:40:58;101715.66;;;7.71;100.00
42633;BME280;28261;53.304;-6.284;2023-01-31T01:43:02;101714.84;;;7.69;100.00
42633;BME280;28261;53.304;-6.284;2023-01-31T01:45:11;101706.16;;;7.67;100.00
42633;BME280;28261;53.304;-6.284;2023-01-31T01:47:30;101701.91;;;7.63;100.00
42633;BME280;28261;53.304;-6.284;2023-01-31T01:49:36;101681.78;;;7.60;100.00
42633;BME280;28261;53.304;-6.284;2023-01-31T01:51:41;101689.81;;;7.57;100.00
42633;BME280;28261;53.304;-6.284;2023-01-31T01:53:48;101688.16;;;7.55;100.00
42633;BME280;28261;53.304;-6.284;2023-01-31T01:55:55;101697.88;;;7.53;100.00
42633;BME280;28261;53.304;-6.284;2023-01-31T01:58:05;101694.41;;;7.52;100.00
42633;BME280;28261;53.304;-6.284;2023-01-31T02:00:14;101691.75;;;7.52;100.00
42633;BME280;28261;53.304;-6.284;2023-01-31T02:02:18;101688.25;;;7.52;100.00
42633;BME280;28261;53.304;-6.284;2023-01-31T02:04:27;101685.56;;;7.53;100.00
42633;BME280;28261;53.304;-6.284;2023-01-31T02:06:33;101698.72;;;7.55;100.00
42633;BME280;28261;53.304;-6.284;2023-01-31T02:08:38;101681.03;;;7.57;100.00
42633;BME280;28261;53.304;-6.284;2023-01-31T02:10:48;101676.63;;;7.57;100.00
42633;BME280;28261;53.304;-6.284;2023-01-31T02:12:53;101681.91;;;7.57;100.00
42633;BME280;28261;53.304;-6.284;2023-01-31T02:14:56;101677.47;;;7.58;100.00
42633;BME280;28261;53.304;-6.284;2023-01-31T02:17:00;101680.97;;;7.58;100.00
42633;BME280;28261;53.304;-6.284;2023-01-31T02:19:09;101679.19;;;7.59;100.00
42633;BME280;28261;53.304;-6.284;2023-01-31T02:24:21;101670.41;;;7.58;100.00
42633;BME280;28261;53.304;-6.284;2023-01-31T02:27:06;101680.03;;;7.59;100.00
42633;BME280;28261;53.304;-6.284;2023-01-31T02:32:20;101669.41;;;7.61;100.00
42633;BME280;28261;53.304;-6.284;2023-01-31T02:34:34;101680.72;;;7.65;100.00
42633;BME280;28261;53.304;-6.284;2023-01-31T02:36:47;101678.94;;;7.65;100.00
42633;BME280;28261;53.304;-6.284;2023-01-31T02:39:02;101677.13;;;7.67;100.00
42633;BME280;28261;53.304;-6.284;2023-01-31T02:41:15;101678.84;;;7.68;100.00
42633;BME280;28261;53.304;-6.284;2023-01-31T02:43:23;101669.13;;;7.69;100.00
42633;BME280;28261;53.304;-6.284;2023-01-31T02:45:36;101663.84;;;7.69;100.00
42633;BME280;28261;53.304;-6.284;2023-01-31T02:47:54;101669.19;;;7.67;100.00
42633;BME280;28261;53.304;-6.284;2023-01-31T02:50:10;101654.28;;;7.66;100.00
42633;BME280;28261;53.304;-6.284;2023-01-31T02:52:21;101657.72;;;7.68;100.00
42633;BME280;28261;53.304;-6.284;2023-01-31T02:54:35;101654.22;;;7.68;100.00
42633;BME280;28261;53.304;-6.284;2023-01-31T02:56:53;101657.72;;;7.68;100.00
42633;BME280;28261;53.304;-6.284;2023-01-31T02:58:59;101650.59;;;7.70;100.00
42633;BME280;28261;53.304;-6.284;2023-01-31T03:01:05;101649.69;;;7.71;100.00
42633;BME280;28261;53.304;-6.284;2023-01-31T03:03:18;101639.97;;;7.72;100.00
42633;BME280;28261;53.304;-6.284;2023-01-31T03:05:22;101660.94;;;7.75;100.00
42633;BME280;28261;53.304;-6.284;2023-01-31T03:07:30;101650.34;;;7.76;100.00
42633;BME280;28261;53.304;-6.284;2023-01-31T03:09:41;101651.13;;;7.78;100.00
42633;BME280;28261;53.304;-6.284;2023-01-31T03:11:54;101657.22;;;7.81;100.00
42633;BME280;28261;53.304;-6.284;2023-01-31T03:14:08;101656.22;;;7.83;100.00
42633;BME280;28261;53.304;-6.284;2023-01-31T03:16:22;101668.50;;;7.84;100.00
42633;BME280;28261;53.304;-6.284;2023-01-31T03:18:53;101662.38;;;7.84;100.00
42633;BME280;28261;53.304;-6.284;2023-01-31T03:21:02;101665.88;;;7.84;100.00
42633;BME280;28261;53.304;-6.284;2023-01-31T03:23:11;101669.38;;;7.85;100.00
42633;BME280;28261;53.304;-6.284;2023-01-31T03:25:19;101655.25;;;7.86;100.00
42633;BME280;28261;53.304;-6.284;2023-01-31T03:27:28;101665.72;;;7.87;100.00
42633;BME280;28261;53.304;-6.284;2023-01-31T03:29:34;101652.50;;;7.89;100.00
42633;BME280;28261;53.304;-6.284;2023-01-31T03:31:47;101662.13;;;7.90;100.00
42633;BME280;28261;53.304;-6.284;2023-01-31T03:33:54;101655.84;;;7.92;100.00
42633;BME280;28261;53.304;-6.284;2023-01-31T03:36:05;101658.44;;;7.94;100.00
42633;BME280;28261;53.304;-6.284;2023-01-31T03:38:16;101664.50;;;7.96;100.00
42633;BME280;28261;53.304;-6.284;2023-01-31T03:40:25;101655.75;;;7.95;100.00
42633;BME280;28261;53.304;-6.284;2023-01-31T03:42:38;101662.78;;;7.95;100.00
42633;BME280;28261;53.304;-6.284;2023-01-31T03:44:50;101673.28;;;7.96;100.00
42633;BME280;28261;53.304;-6.284;2023-01-31T03:47:00;101674.16;;;7.97;100.00
42633;BME280;28261;53.304;-6.284;2023-01-31T03:49:10;101680.16;;;8.01;100.00
42633;BME280;28261;53.304;-6.284;2023-01-31T03:51:18;101673.97;;;8.02;100.00
42633;BME280;28261;53.304;-6.284;2023-01-31T03:53:26;101658.13;;;8.02;100.00
42633;BME280;28261;53.304;-6.284;2023-01-31T03:55:35;101659.03;;;8.01;100.00
42633;BME280;28261;53.304;-6.284;2023-01-31T03:57:42;101662.56;;;8.01;100.00
42633;BME280;28261;53.304;-6.284;2023-01-31T03:59:51;101659.91;;;8.01;100.00
42633;BME280;28261;53.304;-6.284;2023-01-31T04:01:58;101665.19;;;8.01;100.00
42633;BME280;28261;53.304;-6.284;2023-01-31T04:04:09;101675.75;;;8.01;100.00
42633;BME280;28261;53.304;-6.284;2023-01-31T04:06:14;101674.94;;;7.99;100.00
42633;BME280;28261;53.304;-6.284;2023-01-31T04:08:18;101682.72;;;8.02;100.00
42633;BME280;28261;53.304;-6.284;2023-01-31T04:10:32;101679.25;;;8.02;100.00
42633;BME280;28261;53.304;-6.284;2023-01-31T04:12:35;101680.97;;;8.03;100.00
42633;BME280;28261;53.304;-6.284;2023-01-31T04:14:39;101687.09;;;8.03;100.00
42633;BME280;28261;53.304;-6.284;2023-01-31T04:16:43;101672.06;;;8.05;100.00
42633;BME280;28261;53.304;-6.284;2023-01-31T04:18:46;101664.91;;;8.07;100.00
42633;BME280;28261;53.304;-6.284;2023-01-31T04:20:51;101684.22;;;8.09;100.00
42633;BME280;28261;53.304;-6.284;2023-01-31T04:22:54;101691.19;;;8.10;100.00
42633;BME280;28261;53.304;-6.284;2023-01-31T04:24:57;101707.03;;;8.10;100.00
42633;BME280;28261;53.304;-6.284;2023-01-31T04:27:01;101706.19;;;8.10;100.00
42633;BME280;28261;53.304;-6.284;2023-01-31T04:29:04;101715.03;;;8.09;100.00
42633;BME280;28261;53.304;-6.284;2023-01-31T04:31:08;101720.44;;;8.06;100.00
42633;BME280;28261;53.304;-6.284;2023-01-31T04:33:11;101705.72;;;8.00;100.00
42633;BME280;28261;53.304;-6.284;2023-01-31T04:35:15;101724.50;;;7.92;100.00
42633;BME280;28261;53.304;-6.284;2023-01-31T04:37:20;101721.31;;;7.84;100.00
42633;BME280;28261;53.304;-6.284;2023-01-31T04:39:23;101727.63;;;7.80;100.00
42633;BME280;28261;53.304;-6.284;2023-01-31T04:41:27;101734.00;;;7.74;100.00
42633;BME280;28261;53.304;-6.284;2023-01-31T04:43:31;101742.97;;;7.70;100.00
42633;BME280;28261;53.304;-6.284;2023-01-31T04:45:34;101726.50;;;7.63;100.00
42633;BME280;28261;53.304;-6.284;2023-01-31T04:47:37;101742.53;;;7.59;100.00
42633;BME280;28261;53.304;-6.284;2023-01-31T04:49:41;101741.84;;;7.54;100.00
42633;BME280;28261;53.304;-6.284;2023-01-31T04:51:45;101762.25;;;7.49;100.00
42633;BME280;28261;53.304;-6.284;2023-01-31T04:53:49;101756.25;;;7.45;100.00
42633;BME280;28261;53.304;-6.284;2023-01-31T04:55:53;101762.50;;;7.42;100.00
42633;BME280;28261;53.304;-6.284;2023-01-31T04:57:57;101753.03;;;7.37;100.00
42633;BME280;28261;53.304;-6.284;2023-01-31T05:00:00;101749.69;;;7.32;100.00
42633;BME280;28261;53.304;-6.284;2023-01-31T05:02:03;101754.28;;;7.26;100.00
42633;BME280;28261;53.304;-6.284;2023-01-31T05:04:07;101754.47;;;7.22;100.00
42633;BME280;28261;53.304;-6.284;2023-01-31T05:06:10;101758.13;;;7.18;100.00
42633;BME280;28261;53.304;-6.284;2023-01-31T05:08:13;101767.91;;;7.14;100.00
42633;BME280;28261;53.304;-6.284;2023-01-31T05:10:18;101765.47;;;7.08;100.00
42633;BME280;28261;53.304;-6.284;2023-01-31T05:12:22;101760.38;;;7.03;100.00
42633;BME280;28261;53.304;-6.284;2023-01-31T05:14:25;101766.69;;;6.99;100.00
42633;BME280;28261;53.304;-6.284;2023-01-31T05:16:29;101757.16;;;6.95;100.00
42633;BME280;28261;53.304;-6.284;2023-01-31T05:18:33;101771.25;;;6.94;100.00
42633;BME280;28261;53.304;-6.284;2023-01-31T05:20:37;101764.28;;;6.93;100.00
42633;BME280;28261;53.304;-6.284;2023-01-31T05:22:41;101761.66;;;6.91;100.00
42633;BME280;28261;53.304;-6.284;2023-01-31T05:24:45;101760.81;;;6.91;100.00
42633;BME280;28261;53.304;-6.284;2023-01-31T05:26:50;101763.50;;;6.89;99.78
42633;BME280;28261;53.304;-6.284;2023-01-31T05:28:57;101745.97;;;6.88;99.26
42633;BME280;28261;53.304;-6.284;2023-01-31T05:31:05;101738.97;;;6.87;98.58
42633;BME280;28261;53.304;-6.284;2023-01-31T05:33:09;101747.81;;;6.86;97.63
42633;BME280;28261;53.304;-6.284;2023-01-31T05:35:13;101741.72;;;6.84;97.10
42633;BME280;28261;53.304;-6.284;2023-01-31T05:37:17;101741.78;;;6.83;96.74
42633;BME280;28261;53.304;-6.284;2023-01-31T05:39:20;101742.72;;;6.80;96.46
42633;BME280;28261;53.304;-6.284;2023-01-31T05:41:23;101729.56;;;6.80;95.73
42633;BME280;28261;53.304;-6.284;2023-01-31T05:43:28;101741.00;;;6.79;95.04
42633;BME280;28261;53.304;-6.284;2023-01-31T05:45:32;101730.53;;;6.77;95.29
42633;BME280;28261;53.304;-6.284;2023-01-31T05:47:35;101737.59;;;6.77;95.25
42633;BME280;28261;53.304;-6.284;2023-01-31T05:49:39;101734.06;;;6.76;94.70
42633;BME280;28261;53.304;-6.284;2023-01-31T05:51:42;101733.28;;;6.74;93.91
42633;BME280;28261;53.304;-6.284;2023-01-31T05:53:45;101731.53;;;6.73;93.79
42633;BME280;28261;53.304;-6.284;2023-01-31T05:55:49;101721.06;;;6.72;94.11
42633;BME280;28261;53.304;-6.284;2023-01-31T05:57:53;101725.53;;;6.70;94.11
42633;BME280;28261;53.304;-6.284;2023-01-31T05:59:58;101714.13;;;6.69;94.15
42633;BME280;28261;53.304;-6.284;2023-01-31T06:02:12;101712.44;;;6.67;94.95
42633;BME280;28261;53.304;-6.284;2023-01-31T06:04:15;101713.38;;;6.66;95.02
42633;BME280;28261;53.304;-6.284;2023-01-31T06:06:19;101713.41;;;6.64;95.60
42633;BME280;28261;53.304;-6.284;2023-01-31T06:08:23;101716.97;;;6.63;96.10
42633;BME280;28261;53.304;-6.284;2023-01-31T06:10:26;101713.47;;;6.63;96.86
42633;BME280;28261;53.304;-6.284;2023-01-31T06:12:29;101713.53;;;6.61;97.50
42633;BME280;28261;53.304;-6.284;2023-01-31T06:14:33;101731.13;;;6.60;98.17
42633;BME280;28261;53.304;-6.284;2023-01-31T06:16:38;101731.13;;;6.60;98.69
42633;BME280;28261;53.304;-6.284;2023-01-31T06:18:41;101737.25;;;6.61;98.85
42633;BME280;28261;53.304;-6.284;2023-01-31T06:20:45;101731.97;;;6.61;98.82
42633;BME280;28261;53.304;-6.284;2023-01-31T06:22:48;101731.97;;;6.61;98.72
42633;BME280;28261;53.304;-6.284;2023-01-31T06:24:51;101731.00;;;6.64;98.58
42633;BME280;28261;53.304;-6.284;2023-01-31T06:26:55;101737.13;;;6.64;98.25
42633;BME280;28261;53.304;-6.284;2023-01-31T06:28:59;101743.22;;;6.66;98.03
42633;BME280;28261;53.304;-6.284;2023-01-31T06:31:05;101734.47;;;6.66;97.95
42633;BME280;28261;53.304;-6.284;2023-01-31T06:33:11;101744.00;;;6.68;98.03
42633;BME280;28261;53.304;-6.284;2023-01-31T06:35:14;101739.69;;;6.67;98.17
42633;BME280;28261;53.304;-6.284;2023-01-31T06:37:18;101749.28;;;6.68;98.37
42633;BME280;28261;53.304;-6.284;2023-01-31T06:39:21;101743.09;;;6.69;98.68
42633;BME280;28261;53.304;-6.284;2023-01-31T06:41:24;101736.09;;;6.70;98.66
42633;BME280;28261;53.304;-6.284;2023-01-31T06:43:28;101737.78;;;6.71;98.54
42633;BME280;28261;53.304;-6.284;2023-01-31T06:45:31;101732.50;;;6.71;98.76
42633;BME280;28261;53.304;-6.284;2023-01-31T06:47:35;101753.59;;;6.71;98.28
42633;BME280;28261;53.304;-6.284;2023-01-31T06:49:39;101743.97;;;6.70;98.08
42633;BME280;28261;53.304;-6.284;2023-01-31T06:51:43;101743.97;;;6.70;97.87
42633;BME280;28261;53.304;-6.284;2023-01-31T06:53:46;101744.88;;;6.69;97.93
42633;BME280;28261;53.304;-6.284;2023-01-31T06:55:49;101741.34;;;6.70;97.89
42633;BME280;28261;53.304;-6.284;2023-01-31T06:57:53;101740.47;;;6.69;97.65
42633;BME280;28261;53.304;-6.284;2023-01-31T06:59:56;101736.97;;;6.69;97.73
42633;BME280;28261;53.304;-6.284;2023-01-31T07:02:00;101747.59;;;6.67;97.46
42633;BME280;28261;53.304;-6.284;2023-01-31T07:04:03;101738.75;;;6.68;97.23
42633;BME280;28261;53.304;-6.284;2023-01-31T07:06:09;101750.22;;;6.67;97.07
42633;BME280;28261;53.304;-6.284;2023-01-31T07:08:12;101737.03;;;6.67;97.02
42633;BME280;28261;53.304;-6.284;2023-01-31T07:10:16;101755.44;;;6.69;96.94
42633;BME280;28261;53.304;-6.284;2023-01-31T07:12:20;101759.75;;;6.71;96.30
42633;BME280;28261;53.304;-6.284;2023-01-31T07:14:24;101756.16;;;6.74;95.96
42633;BME280;28261;53.304;-6.284;2023-01-31T07:16:27;101756.94;;;6.76;95.86
42633;BME280;28261;53.304;-6.284;2023-01-31T07:18:31;101761.25;;;6.78;95.03
42633;BME280;28261;53.304;-6.284;2023-01-31T07:20:35;101770.88;;;6.80;94.51
42633;BME280;28261;53.304;-6.284;2023-01-31T07:22:40;101779.63;;;6.80;94.42
42633;BME280;28261;53.304;-6.284;2023-01-31T07:24:43;101778.84;;;6.78;94.32
42633;BME280;28261;53.304;-6.284;2023-01-31T07:26:46;101784.13;;;6.78;93.94
42633;BME280;28261;53.304;-6.284;2023-01-31T07:28:51;101783.28;;;6.76;93.70
42633;BME280;28261;53.304;-6.284;2023-01-31T07:30:54;101791.25;;;6.74;93.85
42633;BME280;28261;53.304;-6.284;2023-01-31T07:32:59;101792.97;;;6.75;93.81
42633;BME280;28261;53.304;-6.284;2023-01-31T07:35:03;101793.88;;;6.74;93.70
42633;BME280;28261;53.304;-6.284;2023-01-31T07:37:07;101792.97;;;6.75;93.74
42633;BME280;28261;53.304;-6.284;2023-01-31T07:39:12;101788.63;;;6.74;93.73
42633;BME280;28261;53.304;-6.284;2023-01-31T07:41:15;101799.22;;;6.73;93.56
42633;BME280;28261;53.304;-6.284;2023-01-31T07:43:19;101807.97;;;6.73;93.81
42633;BME280;28261;53.304;-6.284;2023-01-31T07:45:22;101813.28;;;6.72;93.99
42633;BME280;28261;53.304;-6.284;2023-01-31T07:47:26;101812.38;;;6.73;94.10
42633;BME280;28261;53.304;-6.284;2023-01-31T07:49:29;101811.47;;;6.74;94.11
42633;BME280;28261;53.304;-6.284;2023-01-31T07:51:32;101817.59;;;6.74;94.52
42633;BME280;28261;53.304;-6.284;2023-01-31T07:53:37;101821.16;;;6.73;94.64
42633;BME280;28261;53.304;-6.284;2023-01-31T07:55:44;101822.03;;;6.74;95.08
42633;BME280;28261;53.304;-6.284;2023-01-31T07:57:48;101819.34;;;6.75;95.27
42633;BME280;28261;53.304;-6.284;2023-01-31T07:59:52;101829.75;;;6.78;95.44
42633;BME280;28261;53.304;-6.284;2023-01-31T08:01:55;101825.28;;;6.81;95.67
42633;BME280;28261;53.304;-6.284;2023-01-31T08:04:17;101822.56;;;6.84;95.69
42633;BME280;28261;53.304;-6.284;2023-01-31T08:06:29;101818.16;;;6.84;95.55
42633;BME280;28261;53.304;-6.284;2023-01-31T08:08:34;101829.66;;;6.82;95.39
42633;BME280;28261;53.304;-6.284;2023-01-31T08:10:38;101836.72;;;6.81;95.42
42633;BME280;28261;53.304;-6.284;2023-01-31T08:12:44;101835.88;;;6.79;95.39
42633;BME280;28261;53.304;-6.284;2023-01-31T08:14:51;101848.28;;;6.77;95.56
42633;BME280;28261;53.304;-6.284;2023-01-31T08:16:54;101834.25;;;6.75;95.79
42633;BME280;28261;53.304;-6.284;2023-01-31T08:18:59;101842.22;;;6.73;95.64
42633;BME280;28261;53.304;-6.284;2023-01-31T08:21:03;101851.03;;;6.72;95.83
42633;BME280;28261;53.304;-6.284;2023-01-31T08:23:07;101851.03;;;6.72;95.97
42633;BME280;28261;53.304;-6.284;2023-01-31T08:25:10;101847.50;;;6.73;96.00
42633;BME280;28261;53.304;-6.284;2023-01-31T08:27:14;101851.03;;;6.72;96.02
42633;BME280;28261;53.304;-6.284;2023-01-31T08:29:19;101863.38;;;6.72;95.98
42633;BME280;28261;53.304;-6.284;2023-01-31T08:31:25;101866.00;;;6.72;95.98
42633;BME280;28261;53.304;-6.284;2023-01-31T08:33:29;101852.72;;;6.75;96.18
42633;BME280;28261;53.304;-6.284;2023-01-31T08:35:33;101844.81;;;6.75;96.60
42633;BME280;28261;53.304;-6.284;2023-01-31T08:37:40;101850.97;;;6.75;96.54
42633;BME280;28261;53.304;-6.284;2023-01-31T08:39:44;101831.69;;;6.73;96.76
42633;BME280;28261;53.304;-6.284;2023-01-31T08:41:50;101838.78;;;6.71;97.14
42633;BME280;28261;53.304;-6.284;2023-01-31T08:43:54;101838.88;;;6.68;97.21
42633;BME280;28261;53.304;-6.284;2023-01-31T08:46:01;101854.75;;;6.67;97.49
42633;BME280;28261;53.304;-6.284;2023-01-31T08:48:05;101834.59;;;6.66;97.72
42633;BME280;28261;53.304;-6.284;2023-01-31T08:50:10;101840.72;;;6.66;97.89
42633;BME280;28261;53.304;-6.284;2023-01-31T08:52:27;101833.72;;;6.65;98.00
42633;BME280;28261;53.304;-6.284;2023-01-31T08:54:36;101831.13;;;6.64;98.22
42633;BME280;28261;53.304;-6.284;2023-01-31T08:56:40;101830.28;;;6.63;98.32
42633;BME280;28261;53.304;-6.284;2023-01-31T08:58:44;101824.06;;;6.64;98.56
42633;BME280;28261;53.304;-6.284;2023-01-31T09:00:48;101838.25;;;6.62;99.05
42633;BME280;28261;53.304;-6.284;2023-01-31T09:02:54;101832.09;;;6.61;99.03
42633;BME280;28261;53.304;-6.284;2023-01-31T09:04:58;101847.91;;;6.61;99.35
42633;BME280;28261;53.304;-6.284;2023-01-31T09:07:02;101838.25;;;6.62;99.50
42633;BME280;28261;53.304;-6.284;2023-01-31T09:09:05;101840.00;;;6.61;99.47
42633;BME280;28261;53.304;-6.284;2023-01-31T09:11:10;101850.47;;;6.63;99.94
42633;BME280;28261;53.304;-6.284;2023-01-31T09:13:18;101855.69;;;6.64;99.53
42633;BME280;28261;53.304;-6.284;2023-01-31T09:15:22;101857.44;;;6.65;99.77
42633;BME280;28261;53.304;-6.284;2023-01-31T09:17:25;101865.22;;;6.68;99.55
42633;BME280;28261;53.304;-6.284;2023-01-31T09:19:31;101866.91;;;6.71;99.14
42633;BME280;28261;53.304;-6.284;2023-01-31T09:21:35;101864.22;;;6.72;98.91
42633;BME280;28261;53.304;-6.284;2023-01-31T09:23:39;101865.84;;;6.76;97.93
42633;BME280;28261;53.304;-6.284;2023-01-31T09:25:43;101871.03;;;6.80;97.99
42633;BME280;28261;53.304;-6.284;2023-01-31T09:27:50;101872.72;;;6.82;97.60
42633;BME280;28261;53.304;-6.284;2023-01-31T09:29:55;101874.31;;;6.86;97.45
42633;BME280;28261;53.304;-6.284;2023-01-31T09:31:58;101889.94;;;6.92;97.00
42633;BME280;28261;53.304;-6.284;2023-01-31T09:34:02;101890.59;;;6.99;96.28
42633;BME280;28261;53.304;-6.284;2023-01-31T09:36:10;101881.66;;;7.03;95.89
42633;BME280;28261;53.304;-6.284;2023-01-31T09:38:14;101894.69;;;7.08;95.63
42633;BME280;28261;53.304;-6.284;2023-01-31T09:40:20;101900.72;;;7.11;94.91
42633;BME280;28261;53.304;-6.284;2023-01-31T09:42:28;101905.09;;;7.13;94.05
42633;BME280;28261;53.304;-6.284;2023-01-31T09:44:39;101897.97;;;7.15;93.12
42633;BME280;28261;53.304;-6.284;2023-01-31T09:46:46;101909.34;;;7.17;92.72
42633;BME280;28261;53.304;-6.284;2023-01-31T09:48:53;101903.13;;;7.19;92.00
42633;BME280;28261;53.304;-6.284;2023-01-31T09:50:58;101910.84;;;7.24;90.96
42633;BME280;28261;53.304;-6.284;2023-01-31T09:53:03;101903.00;;;7.22;89.76
42633;BME280;28261;53.304;-6.284;2023-01-31T09:55:09;101916.34;;;7.18;88.87
42633;BME280;28261;53.304;-6.284;2023-01-31T09:57:21;101899.88;;;7.11;88.29
42633;BME280;28261;53.304;-6.284;2023-01-31T09:59:34;101897.38;;;7.06;88.64
42633;BME280;28261;53.304;-6.284;2023-01-31T10:01:47;101908.03;;;7.03;88.65
42633;BME280;28261;53.304;-6.284;2023-01-31T10:04:08;101902.81;;;7.02;88.42
42633;BME280;28261;53.304;-6.284;2023-01-31T10:06:23;101909.66;;;7.07;87.96
42633;BME280;28261;53.304;-6.284;2023-01-31T10:08:40;101903.41;;;7.10;87.31
42633;BME280;28261;53.304;-6.284;2023-01-31T10:10:49;101898.03;;;7.13;86.88
42633;BME280;28261;53.304;-6.284;2023-01-31T10:12:55;101895.28;;;7.16;86.43
42633;BME280;28261;53.304;-6.284;2023-01-31T10:15:02;101902.22;;;7.19;86.33
42633;BME280;28261;53.304;-6.284;2023-01-31T10:17:10;101909.13;;;7.23;86.54
42633;BME280;28261;53.304;-6.284;2023-01-31T10:19:22;101917.69;;;7.29;86.08
42633;BME280;28261;53.304;-6.284;2023-01-31T10:21:32;101911.44;;;7.32;85.94
42633;BME280;28261;53.304;-6.284;2023-01-31T10:23:42;101914.97;;;7.33;84.77
42633;BME280;28261;53.304;-6.284;2023-01-31T10:25:51;101931.53;;;7.36;84.48
42633;BME280;28261;53.304;-6.284;2023-01-31T10:28:00;101934.94;;;7.40;83.88
42633;BME280;28261;53.304;-6.284;2023-01-31T10:30:11;101938.31;;;7.43;82.88
42633;BME280;28261;53.304;-6.284;2023-01-31T10:32:20;101940.81;;;7.48;82.08
42633;BME280;28261;53.304;-6.284;2023-01-31T10:34:31;101932.84;;;7.50;81.39
42633;BME280;28261;53.304;-6.284;2023-01-31T10:36:41;101942.44;;;7.52;80.23
42633;BME280;28261;53.304;-6.284;2023-01-31T10:38:57;101951.19;;;7.53;79.01
42633;BME280;28261;53.304;-6.284;2023-01-31T10:41:10;101959.94;;;7.55;77.40
42633;BME280;28261;53.304;-6.284;2023-01-31T10:43:19;101959.00;;;7.56;77.97
42633;BME280;28261;53.304;-6.284;2023-01-31T10:45:26;101953.72;;;7.56;77.80
42633;BME280;28261;53.304;-6.284;2023-01-31T10:47:35;101969.38;;;7.62;78.46
42633;BME280;28261;53.304;-6.284;2023-01-31T10:49:39;101957.84;;;7.65;78.15
42633;BME280;28261;53.304;-6.284;2023-01-31T10:52:04;101957.84;;;7.65;77.57
42633;BME280;28261;53.304;-6.284;2023-01-31T10:54:21;101979.91;;;7.62;78.39
42633;BME280;28261;53.304;-6.284;2023-01-31T10:56:31;101974.63;;;7.62;77.96
42633;BME280;28261;53.304;-6.284;2023-01-31T10:58:36;101959.00;;;7.56;78.19
42633;BME280;28261;53.304;-6.284;2023-01-31T11:00:41;101965.28;;;7.53;78.84
42633;BME280;28261;53.304;-6.284;2023-01-31T11:02:44;101963.50;;;7.54;79.08